createdAt,value
2019-01-03T00:02:47.466Z,2.9
2019-01-03T00:07:53.047Z,3.9
2019-01-03T00:12:57.793Z,3.6
2019-01-03T00:18:02.273Z,3.6
2019-01-03T00:23:08.197Z,3.7
2019-01-03T00:28:14.851Z,3.9
2019-01-03T00:33:18.699Z,3.7
2019-01-03T00:38:23.981Z,3.3
2019-01-03T00:43:29.581Z,3.4
2019-01-03T00:48:34.768Z,3.5
2019-01-03T00:53:40.377Z,3.1
2019-01-03T00:58:46.115Z,3.3
2019-01-03T01:03:51.082Z,3.2
2019-01-03T01:08:55.370Z,3
2019-01-03T01:14:00.406Z,2.9
2019-01-03T01:19:05.868Z,3
2019-01-03T01:24:10.854Z,3.2
2019-01-03T01:29:15.237Z,3
2019-01-03T01:34:21.105Z,2.9
2019-01-03T01:39:26.477Z,3.1
2019-01-03T01:44:32.140Z,2.8
2019-01-03T01:49:37.844Z,3
2019-01-03T01:54:42.859Z,2.8
2019-01-03T01:59:48.543Z,2.9
2019-01-03T02:04:54.117Z,2.7
2019-01-03T02:09:59.283Z,2.7
2019-01-03T02:15:04.798Z,2.8
2019-01-03T02:20:09.989Z,2.7
2019-01-03T02:25:15.643Z,2.5
2019-01-03T02:30:21.397Z,2.6
2019-01-03T02:35:26.371Z,2.4
2019-01-03T02:40:31.736Z,2.7
2019-01-03T02:45:37.521Z,2.6
2019-01-03T02:50:43.199Z,2.5
2019-01-03T02:55:48.428Z,2.2
2019-01-03T03:00:54.730Z,2.5
2019-01-03T03:05:59.612Z,2.4
2019-01-03T03:11:05.149Z,2.3
2019-01-03T03:16:10.717Z,2.6
2019-01-03T03:21:16.186Z,2.3
2019-01-03T03:26:21.273Z,2.6
2019-01-03T03:31:27.217Z,2.4
2019-01-03T03:36:32.656Z,2.4
2019-01-03T03:41:37.730Z,2.3
2019-01-03T03:46:43.455Z,2.2
2019-01-03T03:51:49.387Z,2.4
2019-01-03T03:56:54.611Z,2.2
2019-01-03T04:01:59.768Z,2.1
2019-01-03T04:07:05.152Z,2.2
2019-01-03T04:12:10.458Z,2.2
2019-01-03T04:17:15.461Z,2.1
2019-01-03T04:22:21.422Z,1.9
2019-01-03T04:27:25.480Z,2.3
2019-01-03T04:32:31.232Z,2.1
2019-01-03T04:37:37.010Z,2.2
2019-01-03T04:42:42.227Z,1.9
2019-01-03T04:47:47.307Z,2
2019-01-03T04:52:53.037Z,2
2019-01-03T04:57:58.951Z,1.8
2019-01-03T05:03:05.324Z,1.8
2019-01-03T05:08:10.455Z,1.8
2019-01-03T05:13:15.648Z,1.8
2019-01-03T05:18:21.323Z,2
2019-01-03T05:23:26.672Z,1.8
2019-01-03T05:28:31.131Z,1.6
2019-01-03T05:33:36.468Z,1.7
2019-01-03T05:38:41.874Z,1.8
2019-01-03T05:43:47.961Z,1.6
2019-01-03T05:48:53.329Z,1.7
2019-01-03T05:53:58.948Z,2
2019-01-03T05:59:04.156Z,1.8
2019-01-03T06:04:09.329Z,1.8
2019-01-03T06:09:14.364Z,1.9
2019-01-03T06:14:20.438Z,1.8
2019-01-03T06:19:26.101Z,1.8
2019-01-03T06:24:31.992Z,1.6
2019-01-03T06:29:37.623Z,1.8
2019-01-03T06:34:43.333Z,1.8
2019-01-03T06:39:47.273Z,1.7
2019-01-03T06:44:53.142Z,2
2019-01-03T06:49:59.199Z,1.6
2019-01-03T06:55:06.181Z,1.7
2019-01-03T07:00:09.659Z,1.6
2019-01-03T07:05:15.588Z,1.8
2019-01-03T07:10:21.211Z,1.6
2019-01-03T07:15:26.308Z,1.8
2019-01-03T07:20:31.588Z,1.8
2019-01-03T07:25:36.825Z,1.9
2019-01-03T07:30:41.968Z,1.9
2019-01-03T07:35:47.320Z,1.9
2019-01-03T07:40:52.994Z,2.1
2019-01-03T07:45:58.969Z,1.9
2019-01-03T07:51:03.051Z,2.1
2019-01-03T07:56:08.495Z,2.2
2019-01-03T08:01:14.136Z,1.9
2019-01-03T08:06:20.196Z,1.9
2019-01-03T08:11:25.470Z,1.7
2019-01-03T08:16:30.960Z,1.9
2019-01-03T08:21:36.400Z,1.7
2019-01-03T08:26:41.585Z,2
2019-01-03T08:31:47.527Z,1.7
2019-01-03T08:36:53.515Z,2
2019-01-03T08:41:58.963Z,2
2019-01-03T08:47:04.326Z,1.8
2019-01-03T08:52:09.499Z,2.6
2019-01-03T08:57:14.819Z,2.5
2019-01-03T09:02:19.807Z,2.4
2019-01-03T09:07:24.764Z,2.5
2019-01-03T09:12:29.804Z,2.7
2019-01-03T09:17:34.876Z,2.7
2019-01-03T09:22:39.922Z,2.7
2019-01-03T09:27:45.284Z,3.7
2019-01-03T09:32:51.089Z,4.4
2019-01-03T09:37:56.481Z,5
2019-01-03T09:42:59.972Z,4.8
2019-01-03T09:48:04.931Z,4.5
2019-01-03T09:53:09.850Z,5.4
2019-01-03T09:58:14.995Z,4.3
2019-01-03T10:03:20.450Z,4.4
2019-01-03T10:08:25.548Z,4.8
2019-01-03T10:13:31.351Z,4.9
2019-01-03T10:18:36.403Z,4.7
2019-01-03T10:23:41.554Z,4.7
2019-01-03T10:28:46.880Z,4.1
2019-01-03T10:33:51.928Z,4.2
2019-01-03T10:38:57.580Z,3.7
2019-01-03T10:44:03.550Z,4
2019-01-03T10:49:09.216Z,3.7
2019-01-03T10:54:15.040Z,3.6
2019-01-03T10:59:18.726Z,3.4
2019-01-03T11:04:24.303Z,3.2
2019-01-03T11:09:29.977Z,3.7
2019-01-03T11:14:33.567Z,3.5
2019-01-03T11:19:39.647Z,3.3
2019-01-03T11:24:45.068Z,3.7
2019-01-03T11:29:50.570Z,3.2
2019-01-03T11:34:56.343Z,3.3
2019-01-03T11:40:02.261Z,3.3
2019-01-03T11:45:07.887Z,3
2019-01-03T11:50:13.513Z,3
2019-01-03T11:55:19.193Z,2.5
2019-01-03T12:00:24.302Z,2.6
2019-01-03T12:05:29.139Z,2.8
2019-01-03T12:10:33.611Z,2.4
2019-01-03T12:15:37.452Z,2.3
2019-01-03T12:20:42.805Z,2.1
2019-01-03T12:25:47.987Z,2
2019-01-03T12:30:51.561Z,2
2019-01-03T12:35:56.643Z,2.1
2019-01-03T12:41:02.638Z,2
2019-01-03T12:46:08.230Z,1.9
2019-01-03T12:51:14.240Z,1.8
2019-01-03T12:56:19.572Z,1.9
2019-01-03T13:01:25.292Z,1.8
2019-01-03T13:06:31.003Z,2.1
2019-01-03T13:11:37.192Z,1.8
2019-01-03T13:16:42.872Z,1.9
2019-01-03T13:21:48.638Z,2
2019-01-03T13:26:53.902Z,1.9
2019-01-03T13:32:00.209Z,1.9
2019-01-03T13:37:05.317Z,2
2019-01-03T13:42:10.569Z,1.8
2019-01-03T13:47:15.642Z,1.7
2019-01-03T13:52:21.022Z,1.9
2019-01-03T13:57:26.999Z,1.6
2019-01-03T14:02:32.355Z,1.7
2019-01-03T14:07:38.334Z,1.6
2019-01-03T14:12:44.053Z,1.8
2019-01-03T14:17:49.661Z,1.7
2019-01-03T14:22:54.733Z,1.7
2019-01-03T14:28:00.458Z,1.6
2019-01-03T14:33:06.440Z,1.7
2019-01-03T14:38:11.726Z,1.5
2019-01-03T14:43:15.969Z,1.7
2019-01-03T14:48:21.316Z,1.7
2019-01-03T14:53:26.592Z,1.6
2019-01-03T14:58:31.798Z,1.6
2019-01-03T15:03:38.160Z,1.8
2019-01-03T15:08:43.164Z,1.7
2019-01-03T15:13:48.243Z,1.7
2019-01-03T15:18:53.842Z,1.4
2019-01-03T15:23:59.296Z,1.6
2019-01-03T15:29:04.881Z,1.8
2019-01-03T15:34:10.400Z,1.8
2019-01-03T15:39:16.252Z,1.7
2019-01-03T15:44:21.367Z,1.9
2019-01-03T15:49:27.095Z,2.1
2019-01-03T15:54:32.789Z,2
2019-01-03T15:59:39.144Z,2
2019-01-03T16:04:44.676Z,1.9
2019-01-03T16:09:50.817Z,2
2019-01-03T16:14:56.352Z,2.2
2019-01-03T16:20:01.737Z,2.4
2019-01-03T16:25:08.322Z,3.4
2019-01-03T16:30:14.854Z,3.2
2019-01-03T16:35:20.891Z,3.3
2019-01-03T16:40:26.439Z,3.6
2019-01-03T16:45:32.045Z,3.2
2019-01-03T16:50:36.947Z,2.9
2019-01-03T16:55:41.915Z,2.8
2019-01-03T17:00:48.397Z,3.6
2019-01-03T17:05:53.707Z,3.3
2019-01-03T17:10:58.828Z,3.4
2019-01-03T17:16:04.083Z,3.4
2019-01-03T17:21:09.544Z,3.3
2019-01-03T17:26:14.677Z,4.5
2019-01-03T17:31:19.869Z,4.3
2019-01-03T17:36:26.475Z,4.7
2019-01-03T17:41:32.084Z,4.9
2019-01-03T17:46:37.279Z,4.5
2019-01-03T17:51:43.093Z,4.5
2019-01-03T17:56:48.556Z,4.5
2019-01-03T18:01:54.661Z,4.3
2019-01-03T18:06:59.964Z,4.5
2019-01-03T18:12:05.147Z,4.7
2019-01-03T18:17:13.125Z,4.9
2019-01-03T18:22:18.292Z,4.5
2019-01-03T18:27:23.320Z,4.2
2019-01-03T18:32:28.244Z,6.8
2019-01-03T18:37:34.091Z,16.8
2019-01-03T18:42:39.844Z,15.8
2019-01-03T18:47:45.507Z,15.8
2019-01-03T18:52:51.184Z,15.5
2019-01-03T18:57:56.590Z,14.8
2019-01-03T19:03:02.089Z,15.5
2019-01-03T19:08:07.408Z,14.2
2019-01-03T19:12:58.346Z,52
2019-01-03T19:18:03.672Z,51.4
2019-01-03T19:23:09.215Z,18.3
2019-01-03T19:28:16.420Z,19.1
2019-01-03T19:33:19.737Z,15.6
2019-01-03T19:38:25.643Z,15.2
2019-01-03T19:43:31.509Z,14
2019-01-03T19:48:36.468Z,12.8
2019-01-03T19:53:43.263Z,12.1
2019-01-03T19:58:49.276Z,11.3
2019-01-03T20:03:54.307Z,10.6
2019-01-03T20:08:59.320Z,9.5
2019-01-03T20:14:04.739Z,9.9
2019-01-03T20:19:10.444Z,9.6
2019-01-03T20:24:18.483Z,9
2019-01-03T20:29:24.063Z,8.9
2019-01-03T20:34:30.009Z,9.1
2019-01-03T20:39:35.899Z,9.1
2019-01-03T20:44:40.782Z,8.4
2019-01-03T20:49:47.742Z,8.4
2019-01-03T20:54:57.535Z,8.5
2019-01-03T21:00:03.324Z,8.3
2019-01-03T21:05:03.791Z,8.2
2019-01-03T21:10:09.344Z,8.1
2019-01-03T21:15:17.016Z,7.8
2019-01-03T21:20:22.407Z,8.3
2019-01-03T21:25:28.024Z,7.4
2019-01-03T21:30:34.953Z,7.9
2019-01-03T21:35:40.070Z,7.7
2019-01-03T21:40:49.062Z,7.4
2019-01-03T21:45:54.641Z,7.2
2019-01-03T21:51:00.486Z,7.1
2019-01-03T21:56:05.728Z,7.1
2019-01-03T22:01:11.135Z,6.8
2019-01-03T22:06:16.459Z,7.1
2019-01-03T22:11:22.529Z,6.9
2019-01-03T22:16:27.807Z,6.9
2019-01-03T22:21:33.057Z,7.4
2019-01-03T22:26:38.032Z,7.3
2019-01-03T22:31:44.920Z,7.2
2019-01-03T22:36:48.661Z,7.3
2019-01-03T22:41:53.898Z,7.5
2019-01-03T22:47:04.292Z,7.5
2019-01-03T22:52:10.212Z,7.4
2019-01-03T22:57:15.750Z,6.9
2019-01-03T23:02:21.519Z,7.3
2019-01-03T23:07:28.333Z,7.7
2019-01-03T23:12:34.269Z,7.4
2019-01-03T23:17:39.728Z,7.7
2019-01-03T23:22:44.908Z,7.5
2019-01-03T23:27:50.643Z,8
2019-01-03T23:32:54.564Z,8.2
2019-01-03T23:37:59.862Z,7.9
2019-01-03T23:43:05.835Z,7.9
2019-01-03T23:48:10.980Z,7.5
2019-01-03T23:53:16.353Z,7.9
2019-01-03T23:58:23.232Z,7.6
